createdAt,value
2018-05-15T00:00:37.511Z,3.60
2018-05-15T00:01:37.534Z,3.80
2018-05-15T00:02:37.561Z,4.00
2018-05-15T00:03:37.577Z,3.70
2018-05-15T00:04:37.600Z,3.90
2018-05-15T00:05:37.621Z,3.60
2018-05-15T00:06:37.643Z,3.50
2018-05-15T00:07:37.666Z,4.00
2018-05-15T00:08:37.691Z,4.30
2018-05-15T00:09:37.713Z,4.10
2018-05-15T00:10:37.733Z,3.60
2018-05-15T00:11:37.755Z,3.80
2018-05-15T00:12:37.776Z,3.70
2018-05-15T00:13:37.798Z,3.70
2018-05-15T00:14:37.825Z,3.80
2018-05-15T00:15:37.942Z,3.70
2018-05-15T00:16:37.867Z,4.10
2018-05-15T00:17:37.886Z,4.30
2018-05-15T00:18:37.907Z,4.00
2018-05-15T00:19:37.930Z,4.00
2018-05-15T00:20:37.952Z,3.90
2018-05-15T00:21:37.978Z,3.70
2018-05-15T00:22:38.001Z,4.00
2018-05-15T00:23:38.018Z,4.20
2018-05-15T00:24:38.039Z,3.80
2018-05-15T00:25:38.062Z,3.70
2018-05-15T00:26:38.085Z,3.80
2018-05-15T00:27:38.105Z,4.30
2018-05-15T00:28:38.129Z,3.90
2018-05-15T00:29:38.149Z,3.80
2018-05-15T00:30:38.171Z,4.00
2018-05-15T00:31:38.193Z,4.00
2018-05-15T00:32:38.215Z,3.70
2018-05-15T00:33:38.240Z,3.70
2018-05-15T00:34:38.258Z,4.00
2018-05-15T00:35:38.280Z,3.90
2018-05-15T00:36:38.306Z,3.90
2018-05-15T00:37:38.325Z,3.90
2018-05-15T00:38:38.346Z,4.10
2018-05-15T00:39:38.367Z,4.30
2018-05-15T00:40:38.389Z,4.40
2018-05-15T00:41:38.413Z,3.80
2018-05-15T00:42:38.433Z,4.20
2018-05-15T00:43:38.457Z,4.00
2018-05-15T00:44:38.480Z,3.90
2018-05-15T00:45:38.499Z,3.90
2018-05-15T00:46:38.519Z,3.80
2018-05-15T00:47:38.542Z,3.60
2018-05-15T00:48:38.563Z,4.00
2018-05-15T00:49:38.585Z,3.90
2018-05-15T00:50:38.605Z,3.80
2018-05-15T00:51:38.628Z,3.80
2018-05-15T00:52:38.648Z,3.80
2018-05-15T00:53:38.671Z,3.90
2018-05-15T00:54:38.693Z,3.70
2018-05-15T00:55:38.715Z,4.30
2018-05-15T00:56:38.737Z,4.00
2018-05-15T00:57:38.758Z,3.70
2018-05-15T00:58:38.780Z,3.60
2018-05-15T00:59:38.801Z,3.90
2018-05-15T01:00:38.824Z,4.30
2018-05-15T01:01:38.845Z,3.60
2018-05-15T01:02:38.871Z,3.90
2018-05-15T01:03:38.888Z,3.90
2018-05-15T01:04:38.913Z,4.10
2018-05-15T01:05:38.931Z,3.70
2018-05-15T01:06:38.952Z,4.00
2018-05-15T01:07:38.974Z,3.80
2018-05-15T01:08:38.996Z,3.90
2018-05-15T01:09:39.018Z,3.80
2018-05-15T01:10:39.039Z,3.90
2018-05-15T01:11:39.061Z,3.70
2018-05-15T01:12:39.083Z,4.00
2018-05-15T01:13:39.104Z,4.00
2018-05-15T01:14:39.125Z,3.80
2018-05-15T01:15:39.147Z,3.90
2018-05-15T01:16:39.169Z,4.00
2018-05-15T01:17:39.190Z,3.70
2018-05-15T01:18:39.212Z,3.80
2018-05-15T01:19:39.233Z,3.90
2018-05-15T01:20:39.255Z,3.90
2018-05-15T01:21:39.276Z,4.00
2018-05-15T01:22:39.297Z,3.80
2018-05-15T01:23:39.405Z,4.00
2018-05-15T01:24:39.346Z,4.00
2018-05-15T01:25:39.362Z,3.90
2018-05-15T01:26:39.391Z,4.10
2018-05-15T01:27:39.405Z,4.10
2018-05-15T01:28:39.425Z,3.90
2018-05-15T01:29:39.449Z,4.40
2018-05-15T01:30:39.469Z,3.90
2018-05-15T01:31:39.491Z,4.10
2018-05-15T01:32:39.512Z,4.00
2018-05-15T01:33:39.534Z,3.90
2018-05-15T01:34:39.561Z,3.70
2018-05-15T01:35:39.576Z,3.80
2018-05-15T01:36:39.597Z,3.70
2018-05-15T01:37:39.622Z,3.90
2018-05-15T01:38:39.640Z,3.80
2018-05-15T01:39:39.661Z,3.80
2018-05-15T01:40:39.683Z,3.30
2018-05-15T01:41:39.705Z,3.60
2018-05-15T01:42:39.725Z,3.90
2018-05-15T01:43:39.749Z,3.70
2018-05-15T01:44:39.768Z,3.90
2018-05-15T01:45:39.790Z,3.40
2018-05-15T01:46:39.811Z,3.60
2018-05-15T01:47:39.833Z,4.00
2018-05-15T01:48:39.856Z,4.00
2018-05-15T01:49:39.876Z,4.00
2018-05-15T01:50:39.895Z,3.80
2018-05-15T01:51:39.921Z,4.20
2018-05-15T01:52:39.939Z,4.00
2018-05-15T01:53:39.962Z,4.20
2018-05-15T01:54:39.982Z,4.10
2018-05-15T01:55:40.005Z,3.90
2018-05-15T01:56:40.025Z,4.20
2018-05-15T01:57:40.047Z,4.30
2018-05-15T01:58:40.066Z,3.70
2018-05-15T01:59:40.088Z,4.10
2018-05-15T02:00:40.109Z,4.30
2018-05-15T02:01:40.130Z,4.40
2018-05-15T02:02:40.151Z,3.90
2018-05-15T02:03:40.172Z,4.40
2018-05-15T02:04:40.194Z,4.90
2018-05-15T02:05:40.216Z,4.70
2018-05-15T02:06:40.237Z,4.50
2018-05-15T02:07:40.257Z,4.60
2018-05-15T02:08:40.279Z,4.20
2018-05-15T02:09:40.300Z,4.80
2018-05-15T02:10:40.321Z,4.30
2018-05-15T02:11:40.344Z,4.40
2018-05-15T02:12:40.364Z,4.20
2018-05-15T02:13:40.387Z,4.30
2018-05-15T02:14:40.406Z,4.50
2018-05-15T02:15:40.430Z,4.10
2018-05-15T02:16:40.451Z,4.00
2018-05-15T02:17:40.471Z,4.30
2018-05-15T02:18:40.498Z,4.30
2018-05-15T02:19:40.513Z,4.50
2018-05-15T02:20:40.535Z,4.30
2018-05-15T02:21:40.557Z,4.20
2018-05-15T02:22:40.576Z,4.20
2018-05-15T02:23:40.598Z,4.30
2018-05-15T02:24:40.622Z,3.90
2018-05-15T02:25:40.641Z,4.10
2018-05-15T02:26:40.662Z,4.10
2018-05-15T02:27:40.683Z,3.70
2018-05-15T02:28:40.703Z,4.30
2018-05-15T02:29:40.725Z,4.30
2018-05-15T02:30:40.748Z,3.90
2018-05-15T02:31:40.769Z,4.10
2018-05-15T02:32:40.789Z,4.00
2018-05-15T02:33:40.810Z,3.90
2018-05-15T02:34:40.831Z,4.10
2018-05-15T02:35:40.853Z,4.30
2018-05-15T02:36:40.875Z,4.20
2018-05-15T02:37:40.896Z,4.50
2018-05-15T02:38:40.916Z,4.00
2018-05-15T02:39:40.938Z,4.00
2018-05-15T02:40:40.960Z,4.70
2018-05-15T02:41:40.980Z,3.80
2018-05-15T02:42:41.005Z,3.70
2018-05-15T02:43:41.025Z,4.00
2018-05-15T02:44:41.044Z,4.20
2018-05-15T02:45:41.064Z,4.50
2018-05-15T02:46:41.085Z,4.00
2018-05-15T02:47:41.215Z,4.10
2018-05-15T02:48:41.127Z,3.90
2018-05-15T02:49:41.149Z,4.30
2018-05-15T02:50:41.170Z,4.20
2018-05-15T02:51:41.192Z,4.00
2018-05-15T02:52:41.214Z,3.90
2018-05-15T02:53:41.234Z,4.60
2018-05-15T02:54:41.255Z,4.20
2018-05-15T02:55:41.273Z,4.50
2018-05-15T02:56:41.296Z,4.30
2018-05-15T02:57:41.319Z,4.10
2018-05-15T02:58:41.344Z,4.00
2018-05-15T02:59:41.359Z,4.30
2018-05-15T03:00:41.381Z,4.30
2018-05-15T03:01:41.402Z,4.50
2018-05-15T03:02:41.423Z,4.40
2018-05-15T03:03:41.443Z,4.60
2018-05-15T03:04:41.463Z,3.90
2018-05-15T03:05:41.486Z,4.20
2018-05-15T03:06:41.507Z,4.10
2018-05-15T03:07:41.529Z,4.20
2018-05-15T03:08:41.549Z,4.50
2018-05-15T03:09:41.568Z,4.50
2018-05-15T03:10:41.594Z,4.10
2018-05-15T03:11:41.681Z,4.60
2018-05-15T03:12:41.631Z,4.40
2018-05-15T03:13:41.654Z,4.20
2018-05-15T03:14:41.675Z,4.00
2018-05-15T03:15:41.693Z,4.50
2018-05-15T03:16:41.717Z,4.50
2018-05-15T03:17:41.737Z,4.40
2018-05-15T03:18:41.757Z,4.60
2018-05-15T03:19:41.779Z,4.20
2018-05-15T03:20:41.799Z,4.40
2018-05-15T03:21:41.821Z,4.40
2018-05-15T03:22:41.841Z,4.70
2018-05-15T03:23:41.861Z,4.40
2018-05-15T03:24:41.882Z,4.80
2018-05-15T03:25:41.904Z,4.60
2018-05-15T03:26:41.924Z,4.50
2018-05-15T03:27:41.946Z,4.80
2018-05-15T03:28:41.966Z,4.60
2018-05-15T03:29:41.988Z,4.70
2018-05-15T03:30:42.009Z,4.60
2018-05-15T03:31:42.029Z,4.50
2018-05-15T03:32:42.051Z,5.10
2018-05-15T03:33:42.071Z,4.80
2018-05-15T03:34:42.092Z,4.50
2018-05-15T03:35:42.115Z,4.70
2018-05-15T03:36:42.139Z,5.00
2018-05-15T03:37:42.156Z,4.70
2018-05-15T03:38:42.175Z,4.40
2018-05-15T03:39:42.197Z,4.60
2018-05-15T03:40:42.218Z,4.90
2018-05-15T03:41:42.238Z,4.90
2018-05-15T03:42:42.257Z,4.90
2018-05-15T03:43:42.279Z,4.90
2018-05-15T03:44:42.301Z,4.70
2018-05-15T03:45:42.321Z,5.00
2018-05-15T03:46:42.341Z,4.80
2018-05-15T03:47:42.361Z,5.00
2018-05-15T03:48:42.385Z,5.30
2018-05-15T03:49:42.412Z,5.30
2018-05-15T03:50:42.428Z,4.70
2018-05-15T03:51:42.445Z,5.00
2018-05-15T03:52:42.467Z,5.10
2018-05-15T03:53:42.488Z,5.20
2018-05-15T03:54:42.507Z,5.40
2018-05-15T03:55:42.529Z,4.90
2018-05-15T03:56:42.551Z,5.30
2018-05-15T03:57:42.572Z,5.70
2018-05-15T03:58:42.591Z,5.10
2018-05-15T03:59:42.612Z,4.70
2018-05-15T04:00:42.632Z,5.30
2018-05-15T04:01:42.654Z,4.90
2018-05-15T04:02:42.674Z,4.90
2018-05-15T04:03:42.696Z,5.00
2018-05-15T04:04:42.715Z,5.20
2018-05-15T04:05:42.736Z,5.00
2018-05-15T04:06:42.757Z,5.80
2018-05-15T04:07:42.779Z,5.40
2018-05-15T04:08:42.823Z,4.90
2018-05-15T04:09:42.819Z,5.50
2018-05-15T04:10:42.846Z,4.90
2018-05-15T04:11:42.860Z,5.30
2018-05-15T04:12:42.883Z,4.90
2018-05-15T04:13:42.904Z,5.10
2018-05-15T04:14:42.923Z,5.80
2018-05-15T04:15:42.945Z,4.90
2018-05-15T04:16:42.966Z,4.90
2018-05-15T04:17:42.987Z,5.90
2018-05-15T04:18:43.007Z,5.10
2018-05-15T04:19:43.028Z,5.10
2018-05-15T04:20:43.049Z,5.30
2018-05-15T04:21:43.070Z,5.00
2018-05-15T04:22:43.090Z,5.30
2018-05-15T04:23:43.111Z,5.10
2018-05-15T04:24:43.131Z,5.20
2018-05-15T04:25:43.152Z,4.80
2018-05-15T04:26:43.174Z,4.90
2018-05-15T04:27:43.195Z,4.90
2018-05-15T04:28:43.215Z,5.30
2018-05-15T04:29:43.238Z,5.30
2018-05-15T04:30:43.256Z,5.40
2018-05-15T04:31:43.277Z,4.90
2018-05-15T04:32:43.297Z,5.20
2018-05-15T04:33:43.318Z,5.70
2018-05-15T04:34:43.337Z,5.00
2018-05-15T04:35:43.361Z,5.60
2018-05-15T04:36:43.380Z,4.70
2018-05-15T04:37:43.401Z,5.50
2018-05-15T04:38:43.422Z,5.10
2018-05-15T04:39:43.448Z,5.50
2018-05-15T04:40:43.464Z,5.20
2018-05-15T04:41:43.535Z,5.00
2018-05-15T04:42:43.509Z,5.60
2018-05-15T04:43:43.646Z,5.10
2018-05-15T04:44:43.546Z,5.30
2018-05-15T04:45:43.569Z,5.60
2018-05-15T04:46:43.588Z,5.10
2018-05-15T04:47:43.609Z,5.70
2018-05-15T04:48:43.630Z,5.20
2018-05-15T04:49:43.653Z,5.40
2018-05-15T04:50:43.670Z,5.40
2018-05-15T04:51:43.690Z,5.40
2018-05-15T04:52:43.711Z,5.20
2018-05-15T04:53:43.733Z,4.90
2018-05-15T04:54:43.753Z,5.30
2018-05-15T04:55:43.847Z,5.20
2018-05-15T04:56:43.795Z,5.10
2018-05-15T04:57:43.816Z,4.80
2018-05-15T04:58:43.836Z,5.20
2018-05-15T04:59:43.858Z,5.40
2018-05-15T05:00:43.885Z,5.20
2018-05-15T05:01:43.900Z,5.10
2018-05-15T05:02:43.920Z,5.20
2018-05-15T05:03:43.942Z,4.80
2018-05-15T05:04:43.964Z,5.50
2018-05-15T05:05:43.984Z,4.90
2018-05-15T05:06:44.004Z,5.60
2018-05-15T05:07:44.026Z,4.90
2018-05-15T05:08:44.048Z,4.70
2018-05-15T05:09:44.068Z,4.90
2018-05-15T05:10:44.089Z,5.00
2018-05-15T05:11:44.155Z,5.10
2018-05-15T05:12:44.132Z,4.90
2018-05-15T05:13:44.155Z,5.00
2018-05-15T05:14:44.174Z,4.80
2018-05-15T05:15:44.195Z,5.00
2018-05-15T05:16:44.217Z,5.20
2018-05-15T05:17:44.239Z,5.20
2018-05-15T05:18:44.259Z,5.00
2018-05-15T05:19:44.285Z,5.20
2018-05-15T05:20:44.302Z,5.00
2018-05-15T05:21:44.325Z,5.30
2018-05-15T05:22:44.345Z,5.20
2018-05-15T05:23:44.368Z,4.80
2018-05-15T05:24:44.393Z,5.20
2018-05-15T05:25:44.410Z,5.20
2018-05-15T05:26:44.433Z,5.20
2018-05-15T05:27:44.453Z,5.00
2018-05-15T05:28:44.475Z,5.00
2018-05-15T05:29:44.497Z,5.00
2018-05-15T05:30:44.518Z,5.30
2018-05-15T05:31:44.541Z,5.20
2018-05-15T05:32:44.564Z,4.90
2018-05-15T05:33:44.598Z,4.80
2018-05-15T05:34:44.607Z,5.00
2018-05-15T05:35:44.631Z,5.20
2018-05-15T05:36:44.651Z,4.90
2018-05-15T05:37:44.675Z,4.80
2018-05-15T05:38:44.695Z,5.30
2018-05-15T05:39:44.718Z,5.20
2018-05-15T05:40:44.741Z,4.70
2018-05-15T05:41:44.764Z,5.20
2018-05-15T05:42:44.785Z,4.90
2018-05-15T05:43:44.807Z,5.20
2018-05-15T05:44:44.829Z,4.70
2018-05-15T05:45:44.853Z,5.40
2018-05-15T05:46:44.874Z,4.90
2018-05-15T05:47:44.898Z,5.20
2018-05-15T05:48:44.922Z,5.20
2018-05-15T05:49:44.943Z,5.40
2018-05-15T05:50:44.966Z,5.00
2018-05-15T05:51:44.989Z,4.80
2018-05-15T05:52:45.016Z,5.20
2018-05-15T05:53:45.036Z,4.80
2018-05-15T05:54:45.065Z,5.00
2018-05-15T05:55:45.080Z,4.50
2018-05-15T05:56:45.103Z,4.70
2018-05-15T05:57:45.128Z,4.40
2018-05-15T05:58:45.149Z,4.70
2018-05-15T05:59:45.173Z,4.80
2018-05-15T06:00:45.197Z,5.00
2018-05-15T06:01:45.223Z,4.70
2018-05-15T06:02:45.247Z,4.80
2018-05-15T06:03:45.269Z,4.80
2018-05-15T06:04:45.291Z,5.10
2018-05-15T06:05:45.314Z,4.80
2018-05-15T06:06:45.338Z,4.30
2018-05-15T06:07:45.360Z,4.30
2018-05-15T06:08:45.386Z,4.90
2018-05-15T06:09:45.410Z,4.30
2018-05-15T06:10:45.433Z,4.40
2018-05-15T06:11:45.462Z,4.30
2018-05-15T06:12:45.482Z,4.90
2018-05-15T06:13:45.508Z,4.80
2018-05-15T06:14:45.529Z,4.90
2018-05-15T06:15:45.556Z,4.50
2018-05-15T06:16:45.578Z,4.80
2018-05-15T06:17:45.606Z,4.70
2018-05-15T06:18:45.627Z,4.80
2018-05-15T06:19:45.654Z,4.70
2018-05-15T06:20:45.716Z,5.00
2018-05-15T06:21:45.700Z,4.70
2018-05-15T06:22:45.738Z,5.00
2018-05-15T06:23:45.749Z,4.50
2018-05-15T06:24:45.775Z,4.30
2018-05-15T06:25:45.800Z,4.90
2018-05-15T06:26:45.825Z,4.70
2018-05-15T06:27:45.850Z,4.60
2018-05-15T06:28:45.875Z,4.40
2018-05-15T06:29:45.900Z,4.70
2018-05-15T06:30:45.925Z,4.90
2018-05-15T06:31:45.952Z,4.70
2018-05-15T06:32:45.975Z,4.50
2018-05-15T06:33:46.007Z,4.80
2018-05-15T06:34:46.024Z,4.40
2018-05-15T06:35:46.050Z,3.90
2018-05-15T06:36:46.075Z,4.70
2018-05-15T06:37:46.104Z,4.80
2018-05-15T06:38:46.125Z,4.70
2018-05-15T06:39:46.152Z,4.70
2018-05-15T06:40:46.177Z,4.70
2018-05-15T06:41:46.206Z,5.10
2018-05-15T06:42:46.231Z,4.60
2018-05-15T06:43:46.259Z,4.80
2018-05-15T06:44:46.393Z,4.30
2018-05-15T06:45:46.306Z,5.10
2018-05-15T06:46:46.331Z,4.30
2018-05-15T06:47:46.357Z,4.60
2018-05-15T06:48:46.384Z,4.90
2018-05-15T06:49:46.410Z,4.30
2018-05-15T06:50:46.435Z,4.60
2018-05-15T06:51:46.461Z,4.30
2018-05-15T06:52:46.487Z,4.30
2018-05-15T06:53:46.513Z,4.60
2018-05-15T06:54:46.624Z,4.50
2018-05-15T06:55:46.566Z,4.20
2018-05-15T06:56:46.593Z,4.10
2018-05-15T06:57:46.618Z,4.20
2018-05-15T06:58:46.646Z,4.30
2018-05-15T06:59:46.674Z,4.80
2018-05-15T07:00:46.735Z,4.30
2018-05-15T07:01:46.741Z,4.30
2018-05-15T07:02:46.753Z,4.30
2018-05-15T07:03:46.783Z,4.60
2018-05-15T07:04:46.812Z,4.80
2018-05-15T07:05:46.835Z,4.20
2018-05-15T07:06:46.858Z,4.40
2018-05-15T07:07:46.936Z,4.40
2018-05-15T07:08:46.913Z,4.60
2018-05-15T07:09:46.941Z,4.50
2018-05-15T07:10:46.972Z,4.40
2018-05-15T07:11:46.994Z,4.60
2018-05-15T07:12:47.021Z,4.40
2018-05-15T07:13:47.052Z,4.30
2018-05-15T07:14:47.074Z,4.60
2018-05-15T07:15:47.102Z,4.40
2018-05-15T07:16:47.131Z,4.40
2018-05-15T07:17:47.163Z,4.50
2018-05-15T07:18:47.186Z,4.30
2018-05-15T07:19:47.214Z,3.90
2018-05-15T07:20:47.243Z,4.40
2018-05-15T07:21:47.273Z,4.50
2018-05-15T07:22:47.299Z,4.60
2018-05-15T07:23:47.324Z,4.60
2018-05-15T07:24:47.353Z,4.40
2018-05-15T07:25:47.381Z,7.40
2018-05-15T07:26:47.411Z,10.00
2018-05-15T07:27:47.438Z,5.70
2018-05-15T07:28:47.465Z,4.60
2018-05-15T07:29:47.493Z,5.10
2018-05-15T07:30:47.524Z,5.10
2018-05-15T07:31:47.549Z,5.10
2018-05-15T07:32:47.577Z,4.90
2018-05-15T07:33:47.609Z,4.80
2018-05-15T07:34:47.638Z,4.40
2018-05-15T07:35:47.663Z,4.20
2018-05-15T07:36:47.693Z,4.70
2018-05-15T07:37:47.720Z,4.30
2018-05-15T07:38:47.748Z,4.10
2018-05-15T07:39:47.777Z,4.20
2018-05-15T07:40:47.805Z,4.50
2018-05-15T07:41:47.837Z,4.20
2018-05-15T07:42:47.863Z,4.10
2018-05-15T07:43:47.892Z,4.30
2018-05-15T07:44:47.921Z,4.30
2018-05-15T07:45:47.951Z,4.40
2018-05-15T07:46:47.979Z,4.30
2018-05-15T07:47:48.009Z,4.60
2018-05-15T07:48:48.038Z,4.20
2018-05-15T07:49:48.068Z,4.20
2018-05-15T07:50:48.096Z,4.00
2018-05-15T07:51:48.125Z,4.10
2018-05-15T07:52:48.155Z,3.80
2018-05-15T07:53:48.197Z,4.40
2018-05-15T07:54:48.215Z,4.20
2018-05-15T07:55:48.245Z,4.00
2018-05-15T07:56:48.278Z,4.10
2018-05-15T07:57:48.303Z,3.50
2018-05-15T07:58:48.333Z,3.80
2018-05-15T07:59:48.363Z,3.80
2018-05-15T08:00:48.395Z,4.10
2018-05-15T08:01:48.426Z,3.70
2018-05-15T08:02:48.454Z,3.80
2018-05-15T08:03:48.485Z,3.80
2018-05-15T08:04:48.517Z,3.80
2018-05-15T08:05:48.544Z,3.70
2018-05-15T08:06:48.574Z,3.70
2018-05-15T08:07:48.604Z,3.80
2018-05-15T08:08:48.638Z,3.80
2018-05-15T08:09:48.666Z,3.90
2018-05-15T08:10:48.696Z,3.90
2018-05-15T08:11:48.725Z,3.80
2018-05-15T08:12:48.762Z,3.40
2018-05-15T08:13:48.787Z,3.70
2018-05-15T08:14:48.817Z,4.00
2018-05-15T08:15:48.847Z,3.80
2018-05-15T08:16:48.879Z,3.70
2018-05-15T08:17:48.909Z,4.10
2018-05-15T08:18:48.939Z,3.90
2018-05-15T08:19:48.971Z,3.60
2018-05-15T08:20:49.000Z,3.50
2018-05-15T08:21:49.033Z,3.60
2018-05-15T08:22:49.061Z,3.60
2018-05-15T08:23:49.094Z,3.30
2018-05-15T08:24:49.125Z,3.00
2018-05-15T08:25:49.156Z,3.40
2018-05-15T08:26:49.187Z,3.50
2018-05-15T08:27:49.218Z,3.60
2018-05-15T08:28:49.249Z,3.50
2018-05-15T08:29:49.280Z,3.60
2018-05-15T08:30:49.372Z,3.80
2018-05-15T08:31:49.340Z,3.60
2018-05-15T08:32:49.373Z,3.40
2018-05-15T08:33:49.404Z,3.10
2018-05-15T08:34:49.434Z,3.10
2018-05-15T08:35:49.467Z,3.10
2018-05-15T08:36:49.497Z,3.40
2018-05-15T08:37:49.528Z,3.40
2018-05-15T08:38:49.559Z,3.90
2018-05-15T08:39:49.590Z,3.40
2018-05-15T08:40:49.620Z,3.20
2018-05-15T08:41:49.652Z,2.80
2018-05-15T08:42:49.683Z,3.20
2018-05-15T08:43:49.714Z,3.50
2018-05-15T08:44:49.746Z,2.90
2018-05-15T08:45:49.778Z,3.50
2018-05-15T08:46:49.808Z,3.20
2018-05-15T08:47:49.839Z,3.50
2018-05-15T08:48:49.871Z,3.30
2018-05-15T08:49:49.903Z,3.80
2018-05-15T08:50:49.933Z,3.00
2018-05-15T08:51:49.964Z,3.30
2018-05-15T08:52:49.996Z,3.20
2018-05-15T08:53:50.028Z,3.20
2018-05-15T08:54:50.057Z,3.10
2018-05-15T08:55:50.090Z,3.40
2018-05-15T08:56:50.123Z,3.40
2018-05-15T08:57:50.154Z,3.30
2018-05-15T08:58:50.188Z,3.20
2018-05-15T08:59:50.221Z,3.00
2018-05-15T09:00:50.248Z,2.90
2018-05-15T09:01:50.279Z,3.10
2018-05-15T09:02:50.310Z,3.30
2018-05-15T09:03:50.341Z,3.00
2018-05-15T09:04:50.373Z,3.10
2018-05-15T09:05:50.405Z,2.90
2018-05-15T09:06:50.435Z,3.00
2018-05-15T09:07:50.517Z,3.10
2018-05-15T09:08:50.498Z,2.90
2018-05-15T09:09:50.530Z,2.80
2018-05-15T09:10:50.563Z,3.10
2018-05-15T09:11:50.592Z,2.90
2018-05-15T09:12:50.623Z,3.20
2018-05-15T09:13:50.655Z,3.30
2018-05-15T09:14:50.688Z,3.50
2018-05-15T09:15:50.717Z,3.20
2018-05-15T09:16:50.749Z,3.40
2018-05-15T09:17:50.780Z,2.70
2018-05-15T09:18:50.809Z,2.80
2018-05-15T09:19:50.843Z,3.00
2018-05-15T09:20:50.874Z,3.00
2018-05-15T09:21:50.905Z,3.30
2018-05-15T09:22:50.950Z,3.30
2018-05-15T09:23:50.967Z,2.80
2018-05-15T09:24:51.003Z,2.70
2018-05-15T09:25:51.030Z,2.90
2018-05-15T09:26:51.061Z,3.10
2018-05-15T09:27:51.094Z,2.90
2018-05-15T09:28:51.128Z,2.50
2018-05-15T09:29:51.158Z,3.60
2018-05-15T09:30:51.188Z,3.20
2018-05-15T09:31:51.220Z,2.90
2018-05-15T09:32:51.254Z,2.50
2018-05-15T09:33:51.283Z,2.90
2018-05-15T09:34:51.313Z,2.80
2018-05-15T09:35:51.346Z,2.90
2018-05-15T09:36:51.378Z,2.90
2018-05-15T09:37:51.410Z,2.70
2018-05-15T09:38:51.441Z,2.60
2018-05-15T09:39:51.473Z,2.90
2018-05-15T09:40:51.504Z,3.10
2018-05-15T09:41:51.537Z,2.80
2018-05-15T09:42:51.567Z,3.10
2018-05-15T09:43:51.602Z,3.30
2018-05-15T09:44:51.631Z,3.40
2018-05-15T09:45:51.662Z,2.70
2018-05-15T09:46:51.706Z,2.70
2018-05-15T09:47:51.723Z,2.90
2018-05-15T09:48:51.756Z,3.00
2018-05-15T09:49:51.790Z,3.10
2018-05-15T09:50:51.818Z,2.80
2018-05-15T09:51:51.848Z,3.00
2018-05-15T09:52:51.880Z,2.70
2018-05-15T09:53:51.911Z,2.80
2018-05-15T09:54:51.945Z,2.50
2018-05-15T09:55:51.973Z,2.90
2018-05-15T09:56:52.005Z,3.10
2018-05-15T09:57:52.036Z,2.50
2018-05-15T09:58:52.072Z,3.20
2018-05-15T09:59:52.199Z,3.10
2018-05-15T10:00:52.130Z,3.10
2018-05-15T10:01:52.161Z,3.10
2018-05-15T10:02:52.192Z,3.00
2018-05-15T10:03:52.223Z,2.90
2018-05-15T10:04:52.253Z,3.00
2018-05-15T10:05:52.290Z,3.00
2018-05-15T10:06:52.320Z,2.70
2018-05-15T10:07:52.444Z,3.20
2018-05-15T10:08:52.383Z,2.90
2018-05-15T10:09:52.410Z,3.20
2018-05-15T10:10:52.441Z,3.00
2018-05-15T10:11:52.479Z,3.10
2018-05-15T10:12:52.507Z,2.90
2018-05-15T10:13:52.539Z,3.20
2018-05-15T10:14:52.577Z,2.80
2018-05-15T10:15:52.656Z,2.90
2018-05-15T10:16:52.632Z,2.80
2018-05-15T10:17:52.663Z,2.80
2018-05-15T10:18:52.694Z,3.10
2018-05-15T10:19:52.729Z,2.70
2018-05-15T10:20:52.758Z,2.90
2018-05-15T10:21:52.792Z,3.20
2018-05-15T10:22:52.821Z,3.00
2018-05-15T10:23:52.853Z,2.80
2018-05-15T10:24:52.885Z,2.70
2018-05-15T10:25:52.916Z,2.90
2018-05-15T10:26:52.947Z,2.70
2018-05-15T10:27:52.979Z,2.60
2018-05-15T10:28:53.010Z,2.70
2018-05-15T10:29:53.091Z,2.80
2018-05-15T10:30:53.074Z,3.00
2018-05-15T10:31:53.106Z,2.90
2018-05-15T10:32:53.138Z,3.10
2018-05-15T10:33:53.169Z,2.80
2018-05-15T10:34:53.201Z,2.70
2018-05-15T10:35:53.232Z,2.80
2018-05-15T10:36:53.264Z,3.00
2018-05-15T10:37:53.297Z,3.20
2018-05-15T10:38:53.327Z,2.70
2018-05-15T10:39:53.359Z,2.90
2018-05-15T10:40:53.394Z,3.10
2018-05-15T10:41:53.422Z,2.90
2018-05-15T10:42:53.452Z,3.10
2018-05-15T10:43:53.504Z,2.70
2018-05-15T10:44:53.516Z,3.10
2018-05-15T10:45:53.550Z,2.60
2018-05-15T10:46:53.581Z,2.80
2018-05-15T10:47:53.612Z,3.10
2018-05-15T10:48:53.645Z,3.00
2018-05-15T10:49:53.676Z,2.60
2018-05-15T10:50:53.708Z,2.70
2018-05-15T10:51:53.746Z,2.80
2018-05-15T10:52:53.772Z,2.90
2018-05-15T10:53:53.805Z,2.80
2018-05-15T10:54:53.836Z,3.10
2018-05-15T10:55:53.867Z,3.00
2018-05-15T10:56:53.901Z,2.60
2018-05-15T10:57:53.932Z,2.90
2018-05-15T10:58:53.968Z,2.60
2018-05-15T10:59:53.996Z,2.70
2018-05-15T11:00:54.028Z,2.90
2018-05-15T11:01:54.060Z,2.70
2018-05-15T11:02:54.091Z,2.80
2018-05-15T11:03:54.123Z,2.90
2018-05-15T11:04:54.160Z,2.70
2018-05-15T11:05:54.190Z,2.80
2018-05-15T11:06:54.221Z,2.80
2018-05-15T11:07:54.251Z,2.70
2018-05-15T11:08:54.282Z,2.70
2018-05-15T11:09:54.315Z,2.80
2018-05-15T11:10:54.346Z,2.70
2018-05-15T11:11:54.379Z,2.90
2018-05-15T11:12:54.412Z,2.80
2018-05-15T11:13:54.447Z,2.60
2018-05-15T11:14:54.474Z,3.00
2018-05-15T11:15:54.504Z,2.80
2018-05-15T11:16:54.536Z,3.00
2018-05-15T11:17:54.572Z,2.90
2018-05-15T11:18:54.599Z,2.80
2018-05-15T11:19:54.718Z,2.80
2018-05-15T11:20:54.662Z,3.00
2018-05-15T11:21:54.694Z,2.90
2018-05-15T11:22:54.724Z,2.80
2018-05-15T11:23:54.757Z,3.00
2018-05-15T11:24:54.791Z,3.10
2018-05-15T11:25:54.819Z,2.90
2018-05-15T11:26:54.849Z,3.00
2018-05-15T11:27:54.880Z,3.00
2018-05-15T11:28:54.912Z,2.70
2018-05-15T11:29:54.943Z,3.00
2018-05-15T11:30:54.973Z,3.30
2018-05-15T11:31:55.006Z,2.90
2018-05-15T11:32:55.037Z,3.20
2018-05-15T11:33:55.066Z,3.20
2018-05-15T11:34:55.097Z,3.20
2018-05-15T11:35:55.133Z,3.00
2018-05-15T11:36:55.163Z,3.10
2018-05-15T11:37:55.193Z,3.20
2018-05-15T11:38:55.221Z,2.90
2018-05-15T11:39:55.253Z,3.00
2018-05-15T11:40:55.284Z,2.80
2018-05-15T11:41:55.393Z,2.70
2018-05-15T11:42:55.346Z,2.70
2018-05-15T11:43:55.376Z,2.70
2018-05-15T11:44:55.408Z,3.10
2018-05-15T11:45:55.439Z,3.30
2018-05-15T11:46:55.470Z,2.80
2018-05-15T11:47:55.784Z,2.80
2018-05-15T11:48:56.271Z,3.00
2018-05-15T11:49:56.630Z,3.10
2018-05-15T11:50:56.236Z,3.40
2018-05-15T11:51:56.477Z,3.10
2018-05-15T11:52:56.296Z,3.00
2018-05-15T11:53:55.732Z,2.90
2018-05-15T11:54:55.722Z,3.00
2018-05-15T11:55:55.816Z,3.00
2018-05-15T11:56:55.787Z,3.00
2018-05-15T11:57:55.902Z,2.80
2018-05-15T11:58:55.846Z,2.90
2018-05-15T11:59:55.959Z,2.70
2018-05-15T12:00:55.910Z,2.70
2018-05-15T12:01:55.942Z,3.20
2018-05-15T12:02:55.972Z,3.10
2018-05-15T12:03:56.046Z,2.70
2018-05-15T12:04:56.036Z,3.00
2018-05-15T12:05:56.067Z,2.90
2018-05-15T12:06:56.098Z,2.80
2018-05-15T12:07:56.185Z,2.70
2018-05-15T12:08:56.162Z,2.90
2018-05-15T12:09:56.193Z,2.60
2018-05-15T12:10:56.224Z,2.90
2018-05-15T12:11:56.255Z,2.80
2018-05-15T12:12:56.325Z,2.90
2018-05-15T12:13:56.319Z,2.90
2018-05-15T12:14:56.390Z,2.90
2018-05-15T12:15:56.380Z,2.90
2018-05-15T12:16:56.413Z,2.80
2018-05-15T12:17:56.445Z,3.10
2018-05-15T12:18:56.475Z,2.80
2018-05-15T12:19:56.507Z,2.80
2018-05-15T12:20:56.538Z,3.00
2018-05-15T12:21:56.568Z,3.20
2018-05-15T12:22:56.600Z,2.70
2018-05-15T12:23:56.631Z,2.70
2018-05-15T12:24:56.661Z,3.20
2018-05-15T12:25:56.693Z,2.70
2018-05-15T12:26:56.724Z,3.00
2018-05-15T12:27:56.773Z,2.80
2018-05-15T12:28:56.787Z,2.60
2018-05-15T12:29:56.879Z,3.00
2018-05-15T12:30:56.848Z,3.00
2018-05-15T12:31:56.879Z,2.90
2018-05-15T12:32:56.911Z,2.80
2018-05-15T12:33:56.942Z,2.90
2018-05-15T12:34:56.974Z,2.80
2018-05-15T12:35:57.177Z,2.50
2018-05-15T12:36:57.034Z,2.80
2018-05-15T12:37:57.066Z,2.70
2018-05-15T12:38:57.097Z,3.00
2018-05-15T12:39:57.127Z,2.50
2018-05-15T12:40:57.157Z,2.80
2018-05-15T12:41:57.241Z,2.80
2018-05-15T12:42:57.219Z,2.80
2018-05-15T12:43:57.249Z,2.50
2018-05-15T12:44:57.283Z,2.50
2018-05-15T12:45:57.311Z,2.80
2018-05-15T12:46:57.340Z,2.70
2018-05-15T12:47:57.403Z,2.80
2018-05-15T12:48:57.401Z,3.00
2018-05-15T12:49:57.430Z,3.00
2018-05-15T12:50:57.461Z,2.80
2018-05-15T12:51:57.496Z,2.90
2018-05-15T12:52:57.521Z,2.90
2018-05-15T12:53:57.594Z,2.80
2018-05-15T12:54:57.581Z,2.90
2018-05-15T12:55:57.611Z,2.90
2018-05-15T12:56:57.641Z,2.90
2018-05-15T12:57:57.669Z,2.90
2018-05-15T12:58:57.698Z,2.60
2018-05-15T12:59:57.729Z,2.80
2018-05-15T13:00:57.760Z,3.00
2018-05-15T13:01:57.791Z,2.80
2018-05-15T13:02:57.817Z,3.20
2018-05-15T13:03:57.853Z,3.50
2018-05-15T13:04:57.875Z,3.10
2018-05-15T13:05:57.903Z,3.20
2018-05-15T13:06:57.932Z,2.90
2018-05-15T13:07:57.962Z,3.10
2018-05-15T13:08:57.990Z,3.10
2018-05-15T13:09:58.020Z,2.90
2018-05-15T13:10:58.046Z,3.30
2018-05-15T13:11:58.075Z,3.20
2018-05-15T13:12:58.104Z,3.00
2018-05-15T13:13:58.133Z,3.00
2018-05-15T13:14:58.213Z,3.10
2018-05-15T13:15:58.240Z,3.40
2018-05-15T13:16:58.221Z,3.00
2018-05-15T13:17:58.247Z,3.20
2018-05-15T13:18:58.278Z,3.10